sensor_id;sensor_type;location;lat;lon;timestamp;P1;durP1;ratioP1;P2;durP2;ratioP2
24137;SDS011;17947;50.672;6.076;2023-02-15T00:01:36;5.75;;;4.20;;
24137;SDS011;17947;50.672;6.076;2023-02-15T00:04:03;5.28;;;4.07;;
24137;SDS011;17947;50.672;6.076;2023-02-15T00:06:29;6.35;;;4.47;;
24137;SDS011;17947;50.672;6.076;2023-02-15T00:08:55;7.05;;;4.90;;
24137;SDS011;17947;50.672;6.076;2023-02-15T00:11:21;7.18;;;4.75;;
24137;SDS011;17947;50.672;6.076;2023-02-15T00:16:34;5.53;;;4.07;;
24137;SDS011;17947;50.672;6.076;2023-02-15T00:19:01;6.53;;;4.90;;
24137;SDS011;17947;50.672;6.076;2023-02-15T00:21:28;6.97;;;5.18;;
24137;SDS011;17947;50.672;6.076;2023-02-15T00:23:57;6.25;;;4.45;;
24137;SDS011;17947;50.672;6.076;2023-02-15T00:26:24;5.55;;;4.35;;
24137;SDS011;17947;50.672;6.076;2023-02-15T00:28:50;5.63;;;4.45;;
24137;SDS011;17947;50.672;6.076;2023-02-15T00:31:16;5.40;;;4.25;;
24137;SDS011;17947;50.672;6.076;2023-02-15T00:33:42;5.95;;;4.70;;
24137;SDS011;17947;50.672;6.076;2023-02-15T00:36:08;5.90;;;4.40;;
24137;SDS011;17947;50.672;6.076;2023-02-15T00:38:35;6.90;;;4.60;;
24137;SDS011;17947;50.672;6.076;2023-02-15T00:41:03;5.50;;;4.60;;
24137;SDS011;17947;50.672;6.076;2023-02-15T00:43:30;5.43;;;4.05;;
24137;SDS011;17947;50.672;6.076;2023-02-15T00:45:57;5.70;;;4.55;;
24137;SDS011;17947;50.672;6.076;2023-02-15T00:48:23;6.25;;;4.50;;
24137;SDS011;17947;50.672;6.076;2023-02-15T00:50:50;5.95;;;4.43;;
24137;SDS011;17947;50.672;6.076;2023-02-15T00:53:17;6.18;;;4.55;;
24137;SDS011;17947;50.672;6.076;2023-02-15T00:55:43;5.85;;;4.38;;
24137;SDS011;17947;50.672;6.076;2023-02-15T00:58:09;6.65;;;4.45;;
24137;SDS011;17947;50.672;6.076;2023-02-15T01:00:35;5.30;;;4.05;;
24137;SDS011;17947;50.672;6.076;2023-02-15T01:03:02;6.60;;;4.63;;
24137;SDS011;17947;50.672;6.076;2023-02-15T01:05:28;5.80;;;4.70;;
24137;SDS011;17947;50.672;6.076;2023-02-15T01:07:57;6.18;;;4.30;;
24137;SDS011;17947;50.672;6.076;2023-02-15T01:10:24;5.45;;;4.32;;
24137;SDS011;17947;50.672;6.076;2023-02-15T01:12:50;6.25;;;4.50;;
24137;SDS011;17947;50.672;6.076;2023-02-15T01:15:16;5.32;;;4.22;;
24137;SDS011;17947;50.672;6.076;2023-02-15T01:17:42;7.18;;;4.65;;
24137;SDS011;17947;50.672;6.076;2023-02-15T01:20:10;6.75;;;4.68;;
24137;SDS011;17947;50.672;6.076;2023-02-15T01:22:37;6.18;;;4.38;;
24137;SDS011;17947;50.672;6.076;2023-02-15T01:25:03;5.80;;;4.60;;
24137;SDS011;17947;50.672;6.076;2023-02-15T01:27:29;6.32;;;4.78;;
24137;SDS011;17947;50.672;6.076;2023-02-15T01:29:56;6.65;;;4.50;;
24137;SDS011;17947;50.672;6.076;2023-02-15T01:32:22;4.90;;;4.20;;
24137;SDS011;17947;50.672;6.076;2023-02-15T01:34:48;4.70;;;3.88;;
24137;SDS011;17947;50.672;6.076;2023-02-15T01:37:14;6.03;;;4.70;;
24137;SDS011;17947;50.672;6.076;2023-02-15T01:39:40;6.07;;;4.45;;
24137;SDS011;17947;50.672;6.076;2023-02-15T01:42:10;5.63;;;4.30;;
24137;SDS011;17947;50.672;6.076;2023-02-15T01:47:16;6.15;;;4.32;;
24137;SDS011;17947;50.672;6.076;2023-02-15T01:49:43;5.47;;;4.10;;
24137;SDS011;17947;50.672;6.076;2023-02-15T01:52:10;5.45;;;4.15;;
24137;SDS011;17947;50.672;6.076;2023-02-15T01:54:37;4.85;;;4.05;;
24137;SDS011;17947;50.672;6.076;2023-02-15T01:57:09;5.20;;;4.05;;
24137;SDS011;17947;50.672;6.076;2023-02-15T01:59:36;5.35;;;4.07;;
24137;SDS011;17947;50.672;6.076;2023-02-15T02:02:03;5.88;;;4.85;;
24137;SDS011;17947;50.672;6.076;2023-02-15T02:07:32;5.55;;;4.35;;
24137;SDS011;17947;50.672;6.076;2023-02-15T02:09:59;5.15;;;3.88;;
24137;SDS011;17947;50.672;6.076;2023-02-15T02:12:25;7.25;;;4.15;;
24137;SDS011;17947;50.672;6.076;2023-02-15T02:14:51;5.40;;;4.28;;
24137;SDS011;17947;50.672;6.076;2023-02-15T02:17:22;4.95;;;3.78;;
24137;SDS011;17947;50.672;6.076;2023-02-15T02:32:53;5.15;;;3.95;;
24137;SDS011;17947;50.672;6.076;2023-02-15T02:35:30;4.65;;;3.78;;
24137;SDS011;17947;50.672;6.076;2023-02-15T02:41:00;4.80;;;4.00;;
24137;SDS011;17947;50.672;6.076;2023-02-15T02:43:34;5.00;;;3.80;;
24137;SDS011;17947;50.672;6.076;2023-02-15T02:46:13;5.78;;;4.10;;
24137;SDS011;17947;50.672;6.076;2023-02-15T02:48:40;4.75;;;3.70;;
24137;SDS011;17947;50.672;6.076;2023-02-15T02:51:06;4.32;;;3.83;;
24137;SDS011;17947;50.672;6.076;2023-02-15T02:53:32;4.72;;;3.67;;
24137;SDS011;17947;50.672;6.076;2023-02-15T02:56:01;4.50;;;3.53;;
24137;SDS011;17947;50.672;6.076;2023-02-15T02:58:42;4.63;;;3.72;;
24137;SDS011;17947;50.672;6.076;2023-02-15T03:01:12;5.20;;;4.10;;
24137;SDS011;17947;50.672;6.076;2023-02-15T03:06:43;5.05;;;4.05;;
24137;SDS011;17947;50.672;6.076;2023-02-15T03:12:20;4.20;;;3.45;;
24137;SDS011;17947;50.672;6.076;2023-02-15T03:14:51;4.68;;;3.45;;
24137;SDS011;17947;50.672;6.076;2023-02-15T03:17:18;4.88;;;3.47;;
24137;SDS011;17947;50.672;6.076;2023-02-15T03:19:45;4.50;;;3.33;;
24137;SDS011;17947;50.672;6.076;2023-02-15T03:22:14;5.20;;;3.72;;
24137;SDS011;17947;50.672;6.076;2023-02-15T03:24:47;4.75;;;3.50;;
24137;SDS011;17947;50.672;6.076;2023-02-15T03:27:15;5.38;;;3.90;;
24137;SDS011;17947;50.672;6.076;2023-02-15T03:29:43;3.70;;;3.30;;
24137;SDS011;17947;50.672;6.076;2023-02-15T03:32:11;4.40;;;3.30;;
24137;SDS011;17947;50.672;6.076;2023-02-15T03:34:38;4.10;;;3.42;;
24137;SDS011;17947;50.672;6.076;2023-02-15T03:37:14;4.30;;;3.50;;
24137;SDS011;17947;50.672;6.076;2023-02-15T03:39:45;3.67;;;3.38;;
24137;SDS011;17947;50.672;6.076;2023-02-15T03:42:17;3.95;;;3.30;;
24137;SDS011;17947;50.672;6.076;2023-02-15T03:47:15;4.28;;;3.60;;
24137;SDS011;17947;50.672;6.076;2023-02-15T03:49:44;3.40;;;2.95;;
24137;SDS011;17947;50.672;6.076;2023-02-15T03:52:13;3.83;;;3.10;;
24137;SDS011;17947;50.672;6.076;2023-02-15T03:54:40;4.03;;;3.35;;
24137;SDS011;17947;50.672;6.076;2023-02-15T03:59:56;3.72;;;3.22;;
24137;SDS011;17947;50.672;6.076;2023-02-15T04:05:19;4.30;;;3.10;;
24137;SDS011;17947;50.672;6.076;2023-02-15T04:07:45;3.67;;;3.28;;
24137;SDS011;17947;50.672;6.076;2023-02-15T04:10:11;3.35;;;2.92;;
24137;SDS011;17947;50.672;6.076;2023-02-15T04:12:56;4.30;;;2.95;;
24137;SDS011;17947;50.672;6.076;2023-02-15T04:15:22;3.85;;;3.05;;
24137;SDS011;17947;50.672;6.076;2023-02-15T04:18:07;3.45;;;3.03;;
24137;SDS011;17947;50.672;6.076;2023-02-15T04:20:33;3.80;;;2.90;;
24137;SDS011;17947;50.672;6.076;2023-02-15T04:23:17;3.88;;;2.80;;
24137;SDS011;17947;50.672;6.076;2023-02-15T04:26:03;4.35;;;3.33;;
24137;SDS011;17947;50.672;6.076;2023-02-15T04:28:32;3.50;;;2.75;;
24137;SDS011;17947;50.672;6.076;2023-02-15T04:30:58;3.83;;;3.15;;
24137;SDS011;17947;50.672;6.076;2023-02-15T04:33:24;3.33;;;2.97;;
24137;SDS011;17947;50.672;6.076;2023-02-15T04:35:50;3.25;;;2.95;;
24137;SDS011;17947;50.672;6.076;2023-02-15T04:38:16;3.17;;;2.88;;
24137;SDS011;17947;50.672;6.076;2023-02-15T04:40:42;3.92;;;3.22;;
24137;SDS011;17947;50.672;6.076;2023-02-15T04:43:08;3.78;;;2.80;;
24137;SDS011;17947;50.672;6.076;2023-02-15T04:45:34;3.85;;;2.80;;
24137;SDS011;17947;50.672;6.076;2023-02-15T04:48:00;3.55;;;2.85;;
24137;SDS011;17947;50.672;6.076;2023-02-15T04:50:26;4.07;;;3.10;;
24137;SDS011;17947;50.672;6.076;2023-02-15T04:52:52;3.65;;;2.92;;
24137;SDS011;17947;50.672;6.076;2023-02-15T04:55:18;3.55;;;3.00;;
24137;SDS011;17947;50.672;6.076;2023-02-15T04:57:44;3.50;;;3.00;;
24137;SDS011;17947;50.672;6.076;2023-02-15T05:00:11;3.90;;;3.30;;
24137;SDS011;17947;50.672;6.076;2023-02-15T05:02:37;3.33;;;2.90;;
24137;SDS011;17947;50.672;6.076;2023-02-15T05:05:03;3.03;;;2.70;;
24137;SDS011;17947;50.672;6.076;2023-02-15T05:07:29;3.65;;;3.00;;
24137;SDS011;17947;50.672;6.076;2023-02-15T05:09:55;3.13;;;2.80;;
24137;SDS011;17947;50.672;6.076;2023-02-15T05:12:21;3.45;;;3.15;;
24137;SDS011;17947;50.672;6.076;2023-02-15T05:14:47;3.80;;;3.05;;
24137;SDS011;17947;50.672;6.076;2023-02-15T05:17:13;3.38;;;2.90;;
24137;SDS011;17947;50.672;6.076;2023-02-15T05:19:39;3.03;;;2.70;;
24137;SDS011;17947;50.672;6.076;2023-02-15T05:22:05;4.32;;;3.35;;
24137;SDS011;17947;50.672;6.076;2023-02-15T05:24:31;3.42;;;2.92;;
24137;SDS011;17947;50.672;6.076;2023-02-15T05:27:16;3.08;;;2.70;;
24137;SDS011;17947;50.672;6.076;2023-02-15T05:30:01;3.47;;;2.72;;
24137;SDS011;17947;50.672;6.076;2023-02-15T05:32:27;3.20;;;2.90;;
24137;SDS011;17947;50.672;6.076;2023-02-15T05:34:53;3.47;;;3.10;;
24137;SDS011;17947;50.672;6.076;2023-02-15T05:37:19;3.90;;;2.85;;
24137;SDS011;17947;50.672;6.076;2023-02-15T05:39:45;3.55;;;2.95;;
24137;SDS011;17947;50.672;6.076;2023-02-15T05:42:11;3.30;;;2.90;;
24137;SDS011;17947;50.672;6.076;2023-02-15T05:44:37;4.75;;;2.92;;
24137;SDS011;17947;50.672;6.076;2023-02-15T05:47:03;3.83;;;3.00;;
24137;SDS011;17947;50.672;6.076;2023-02-15T05:49:32;4.07;;;3.28;;
24137;SDS011;17947;50.672;6.076;2023-02-15T05:51:58;3.47;;;2.80;;
24137;SDS011;17947;50.672;6.076;2023-02-15T05:54:24;3.35;;;2.75;;
24137;SDS011;17947;50.672;6.076;2023-02-15T05:56:49;5.07;;;3.00;;
24137;SDS011;17947;50.672;6.076;2023-02-15T05:59:15;3.50;;;2.75;;
24137;SDS011;17947;50.672;6.076;2023-02-15T06:01:42;4.72;;;3.00;;
24137;SDS011;17947;50.672;6.076;2023-02-15T06:04:08;3.15;;;2.85;;
24137;SDS011;17947;50.672;6.076;2023-02-15T06:06:34;3.72;;;3.03;;
24137;SDS011;17947;50.672;6.076;2023-02-15T06:09:00;2.90;;;2.60;;
24137;SDS011;17947;50.672;6.076;2023-02-15T06:11:26;4.35;;;3.13;;
24137;SDS011;17947;50.672;6.076;2023-02-15T06:13:52;3.22;;;2.92;;
24137;SDS011;17947;50.672;6.076;2023-02-15T06:16:18;4.05;;;3.10;;
24137;SDS011;17947;50.672;6.076;2023-02-15T06:18:44;3.75;;;2.72;;
24137;SDS011;17947;50.672;6.076;2023-02-15T06:21:10;3.72;;;2.88;;
24137;SDS011;17947;50.672;6.076;2023-02-15T06:23:36;3.55;;;3.17;;
24137;SDS011;17947;50.672;6.076;2023-02-15T06:26:02;3.50;;;2.92;;
24137;SDS011;17947;50.672;6.076;2023-02-15T06:28:28;4.25;;;3.10;;
24137;SDS011;17947;50.672;6.076;2023-02-15T06:30:55;3.50;;;2.88;;
24137;SDS011;17947;50.672;6.076;2023-02-15T06:33:21;3.70;;;2.90;;
24137;SDS011;17947;50.672;6.076;2023-02-15T06:35:47;4.00;;;3.00;;
24137;SDS011;17947;50.672;6.076;2023-02-15T06:38:13;3.72;;;3.08;;
24137;SDS011;17947;50.672;6.076;2023-02-15T06:40:39;3.60;;;3.00;;
24137;SDS011;17947;50.672;6.076;2023-02-15T06:43:05;4.45;;;3.15;;
24137;SDS011;17947;50.672;6.076;2023-02-15T06:45:31;4.10;;;3.00;;
24137;SDS011;17947;50.672;6.076;2023-02-15T06:47:57;3.95;;;3.03;;
24137;SDS011;17947;50.672;6.076;2023-02-15T06:50:23;4.75;;;3.13;;
24137;SDS011;17947;50.672;6.076;2023-02-15T06:52:49;4.05;;;2.97;;
24137;SDS011;17947;50.672;6.076;2023-02-15T06:55:15;3.25;;;2.92;;
24137;SDS011;17947;50.672;6.076;2023-02-15T06:57:41;3.60;;;3.00;;
24137;SDS011;17947;50.672;6.076;2023-02-15T07:00:07;4.57;;;2.90;;
24137;SDS011;17947;50.672;6.076;2023-02-15T07:02:33;4.93;;;3.20;;
24137;SDS011;17947;50.672;6.076;2023-02-15T07:04:59;3.88;;;3.20;;
24137;SDS011;17947;50.672;6.076;2023-02-15T07:07:25;3.72;;;2.72;;
24137;SDS011;17947;50.672;6.076;2023-02-15T07:09:51;4.10;;;3.28;;
24137;SDS011;17947;50.672;6.076;2023-02-15T07:12:17;6.15;;;3.20;;
24137;SDS011;17947;50.672;6.076;2023-02-15T07:15:02;4.03;;;3.05;;
24137;SDS011;17947;50.672;6.076;2023-02-15T07:17:31;5.03;;;3.10;;
24137;SDS011;17947;50.672;6.076;2023-02-15T07:19:57;3.40;;;3.03;;
24137;SDS011;17947;50.672;6.076;2023-02-15T07:22:23;4.95;;;3.50;;
24137;SDS011;17947;50.672;6.076;2023-02-15T07:24:50;3.85;;;3.20;;
24137;SDS011;17947;50.672;6.076;2023-02-15T07:27:19;4.05;;;2.75;;
24137;SDS011;17947;50.672;6.076;2023-02-15T07:29:45;3.95;;;2.83;;
24137;SDS011;17947;50.672;6.076;2023-02-15T07:32:11;4.57;;;3.35;;
24137;SDS011;17947;50.672;6.076;2023-02-15T07:34:37;3.80;;;3.20;;
24137;SDS011;17947;50.672;6.076;2023-02-15T07:37:03;4.53;;;3.30;;
24137;SDS011;17947;50.672;6.076;2023-02-15T07:39:31;4.15;;;3.20;;
24137;SDS011;17947;50.672;6.076;2023-02-15T07:41:57;4.28;;;3.10;;
24137;SDS011;17947;50.672;6.076;2023-02-15T07:44:23;3.55;;;2.80;;
24137;SDS011;17947;50.672;6.076;2023-02-15T07:46:49;4.05;;;3.28;;
24137;SDS011;17947;50.672;6.076;2023-02-15T07:49:15;3.95;;;3.00;;
24137;SDS011;17947;50.672;6.076;2023-02-15T07:51:41;4.93;;;3.15;;
24137;SDS011;17947;50.672;6.076;2023-02-15T07:54:07;4.72;;;3.30;;
24137;SDS011;17947;50.672;6.076;2023-02-15T07:56:33;5.03;;;3.20;;
24137;SDS011;17947;50.672;6.076;2023-02-15T07:58:59;4.72;;;3.13;;
24137;SDS011;17947;50.672;6.076;2023-02-15T08:01:31;4.15;;;3.10;;
24137;SDS011;17947;50.672;6.076;2023-02-15T08:03:58;3.90;;;2.90;;
24137;SDS011;17947;50.672;6.076;2023-02-15T08:06:25;5.20;;;3.60;;
24137;SDS011;17947;50.672;6.076;2023-02-15T08:08:52;3.63;;;2.92;;
24137;SDS011;17947;50.672;6.076;2023-02-15T08:13:54;3.38;;;2.80;;
24137;SDS011;17947;50.672;6.076;2023-02-15T08:16:22;4.15;;;3.05;;
24137;SDS011;17947;50.672;6.076;2023-02-15T08:18:48;4.82;;;3.00;;
24137;SDS011;17947;50.672;6.076;2023-02-15T08:21:14;4.00;;;3.05;;
24137;SDS011;17947;50.672;6.076;2023-02-15T08:23:40;4.75;;;3.25;;
24137;SDS011;17947;50.672;6.076;2023-02-15T08:26:06;5.45;;;3.08;;
24137;SDS011;17947;50.672;6.076;2023-02-15T08:28:32;3.47;;;2.70;;
24137;SDS011;17947;50.672;6.076;2023-02-15T08:31:07;3.17;;;2.80;;
24137;SDS011;17947;50.672;6.076;2023-02-15T08:33:34;3.92;;;3.10;;
24137;SDS011;17947;50.672;6.076;2023-02-15T08:36:20;4.35;;;3.10;;
24137;SDS011;17947;50.672;6.076;2023-02-15T08:38:46;4.35;;;3.50;;
24137;SDS011;17947;50.672;6.076;2023-02-15T08:43:42;4.03;;;2.72;;
24137;SDS011;17947;50.672;6.076;2023-02-15T08:46:08;4.65;;;3.28;;
24137;SDS011;17947;50.672;6.076;2023-02-15T08:48:35;4.75;;;3.20;;
24137;SDS011;17947;50.672;6.076;2023-02-15T08:51:05;4.05;;;3.10;;
24137;SDS011;17947;50.672;6.076;2023-02-15T08:53:31;5.03;;;3.30;;
24137;SDS011;17947;50.672;6.076;2023-02-15T08:55:58;4.22;;;3.38;;
24137;SDS011;17947;50.672;6.076;2023-02-15T08:58:24;3.92;;;3.28;;
24137;SDS011;17947;50.672;6.076;2023-02-15T09:00:50;4.22;;;3.15;;
24137;SDS011;17947;50.672;6.076;2023-02-15T09:03:17;4.90;;;3.05;;
24137;SDS011;17947;50.672;6.076;2023-02-15T09:05:43;3.30;;;2.85;;
24137;SDS011;17947;50.672;6.076;2023-02-15T09:08:09;3.92;;;3.20;;
24137;SDS011;17947;50.672;6.076;2023-02-15T09:10:35;4.28;;;3.00;;
24137;SDS011;17947;50.672;6.076;2023-02-15T09:13:01;3.05;;;2.75;;
24137;SDS011;17947;50.672;6.076;2023-02-15T09:15:27;4.25;;;3.00;;
24137;SDS011;17947;50.672;6.076;2023-02-15T09:17:53;4.25;;;3.38;;
24137;SDS011;17947;50.672;6.076;2023-02-15T09:20:19;4.30;;;3.08;;
24137;SDS011;17947;50.672;6.076;2023-02-15T09:22:45;4.32;;;3.10;;
24137;SDS011;17947;50.672;6.076;2023-02-15T09:25:11;3.83;;;2.75;;
24137;SDS011;17947;50.672;6.076;2023-02-15T09:27:38;4.20;;;3.22;;
24137;SDS011;17947;50.672;6.076;2023-02-15T09:30:05;3.88;;;3.10;;
24137;SDS011;17947;50.672;6.076;2023-02-15T09:32:31;3.80;;;2.88;;
24137;SDS011;17947;50.672;6.076;2023-02-15T09:34:57;3.88;;;3.08;;
24137;SDS011;17947;50.672;6.076;2023-02-15T09:37:23;3.95;;;2.90;;
24137;SDS011;17947;50.672;6.076;2023-02-15T09:39:49;3.90;;;3.00;;
24137;SDS011;17947;50.672;6.076;2023-02-15T09:45:08;4.35;;;2.97;;
24137;SDS011;17947;50.672;6.076;2023-02-15T09:55:56;4.10;;;3.17;;
24137;SDS011;17947;50.672;6.076;2023-02-15T10:03:37;4.03;;;3.03;;
24137;SDS011;17947;50.672;6.076;2023-02-15T10:06:11;4.60;;;3.08;;
24137;SDS011;17947;50.672;6.076;2023-02-15T10:11:14;3.25;;;2.72;;
24137;SDS011;17947;50.672;6.076;2023-02-15T10:14:07;3.90;;;2.90;;
24137;SDS011;17947;50.672;6.076;2023-02-15T10:32:08;5.28;;;3.00;;
24137;SDS011;17947;50.672;6.076;2023-02-15T10:34:39;3.10;;;2.80;;
24137;SDS011;17947;50.672;6.076;2023-02-15T10:42:12;3.25;;;2.72;;
24137;SDS011;17947;50.672;6.076;2023-02-15T10:45:03;3.28;;;2.80;;
24137;SDS011;17947;50.672;6.076;2023-02-15T10:47:38;4.53;;;3.05;;
24137;SDS011;17947;50.672;6.076;2023-02-15T10:50:24;4.53;;;3.17;;
24137;SDS011;17947;50.672;6.076;2023-02-15T11:06:33;7.22;;;4.60;;
24137;SDS011;17947;50.672;6.076;2023-02-15T11:09:07;9.27;;;5.15;;
24137;SDS011;17947;50.672;6.076;2023-02-15T11:11:38;7.97;;;4.53;;
24137;SDS011;17947;50.672;6.076;2023-02-15T11:14:10;7.18;;;4.30;;
24137;SDS011;17947;50.672;6.076;2023-02-15T11:16:39;6.43;;;4.50;;
24137;SDS011;17947;50.672;6.076;2023-02-15T11:19:08;6.82;;;4.25;;
24137;SDS011;17947;50.672;6.076;2023-02-15T11:21:38;7.30;;;4.43;;
24137;SDS011;17947;50.672;6.076;2023-02-15T11:24:09;5.88;;;4.18;;
24137;SDS011;17947;50.672;6.076;2023-02-15T11:26:40;5.78;;;3.78;;
24137;SDS011;17947;50.672;6.076;2023-02-15T11:29:26;6.60;;;3.85;;
24137;SDS011;17947;50.672;6.076;2023-02-15T11:31:56;6.68;;;4.00;;
24137;SDS011;17947;50.672;6.076;2023-02-15T11:34:31;6.68;;;3.80;;
24137;SDS011;17947;50.672;6.076;2023-02-15T11:37:00;5.97;;;3.70;;
24137;SDS011;17947;50.672;6.076;2023-02-15T11:39:28;5.32;;;3.75;;
24137;SDS011;17947;50.672;6.076;2023-02-15T11:41:57;4.30;;;3.45;;
24137;SDS011;17947;50.672;6.076;2023-02-15T11:44:30;5.45;;;3.67;;
24137;SDS011;17947;50.672;6.076;2023-02-15T11:46:58;5.75;;;3.72;;
24137;SDS011;17947;50.672;6.076;2023-02-15T11:51:55;5.05;;;3.42;;
24137;SDS011;17947;50.672;6.076;2023-02-15T11:54:23;6.57;;;3.80;;
24137;SDS011;17947;50.672;6.076;2023-02-15T11:56:50;5.45;;;3.47;;
24137;SDS011;17947;50.672;6.076;2023-02-15T11:59:18;5.55;;;3.67;;
24137;SDS011;17947;50.672;6.076;2023-02-15T12:01:47;5.35;;;3.65;;
24137;SDS011;17947;50.672;6.076;2023-02-15T12:04:21;4.57;;;3.03;;
24137;SDS011;17947;50.672;6.076;2023-02-15T12:06:53;5.20;;;3.55;;
24137;SDS011;17947;50.672;6.076;2023-02-15T12:09:27;4.15;;;3.15;;
24137;SDS011;17947;50.672;6.076;2023-02-15T12:12:11;4.45;;;3.35;;
24137;SDS011;17947;50.672;6.076;2023-02-15T12:14:48;4.72;;;3.20;;
24137;SDS011;17947;50.672;6.076;2023-02-15T12:17:15;4.38;;;3.30;;
24137;SDS011;17947;50.672;6.076;2023-02-15T12:19:41;4.60;;;3.35;;
24137;SDS011;17947;50.672;6.076;2023-02-15T12:24:50;5.97;;;3.30;;
24137;SDS011;17947;50.672;6.076;2023-02-15T12:27:17;3.80;;;3.05;;
24137;SDS011;17947;50.672;6.076;2023-02-15T12:30:06;4.18;;;2.90;;
24137;SDS011;17947;50.672;6.076;2023-02-15T12:32:35;4.30;;;2.83;;
24137;SDS011;17947;50.672;6.076;2023-02-15T12:35:26;4.70;;;3.20;;
24137;SDS011;17947;50.672;6.076;2023-02-15T12:37:54;3.35;;;2.85;;
24137;SDS011;17947;50.672;6.076;2023-02-15T12:42:47;3.85;;;3.10;;
24137;SDS011;17947;50.672;6.076;2023-02-15T12:48:07;3.85;;;2.60;;
24137;SDS011;17947;50.672;6.076;2023-02-15T12:50:33;3.38;;;2.58;;
24137;SDS011;17947;50.672;6.076;2023-02-15T12:58:23;3.85;;;2.70;;
24137;SDS011;17947;50.672;6.076;2023-02-15T13:03:31;4.28;;;2.72;;
24137;SDS011;17947;50.672;6.076;2023-02-15T13:05:58;3.28;;;2.70;;
24137;SDS011;17947;50.672;6.076;2023-02-15T13:08:31;4.40;;;2.90;;
24137;SDS011;17947;50.672;6.076;2023-02-15T13:13:28;3.97;;;2.92;;
24137;SDS011;17947;50.672;6.076;2023-02-15T13:16:02;4.05;;;3.30;;
24137;SDS011;17947;50.672;6.076;2023-02-15T13:18:34;4.85;;;3.05;;
24137;SDS011;17947;50.672;6.076;2023-02-15T13:21:06;3.10;;;2.78;;
24137;SDS011;17947;50.672;6.076;2023-02-15T13:23:36;3.50;;;2.80;;
24137;SDS011;17947;50.672;6.076;2023-02-15T13:26:04;4.05;;;2.90;;
24137;SDS011;17947;50.672;6.076;2023-02-15T13:28:34;3.63;;;2.80;;
24137;SDS011;17947;50.672;6.076;2023-02-15T13:31:03;4.57;;;3.00;;
24137;SDS011;17947;50.672;6.076;2023-02-15T13:33:31;3.83;;;2.80;;
24137;SDS011;17947;50.672;6.076;2023-02-15T13:41:05;3.42;;;2.85;;
24137;SDS011;17947;50.672;6.076;2023-02-15T13:51:31;4.18;;;3.20;;
24137;SDS011;17947;50.672;6.076;2023-02-15T14:07:33;3.72;;;2.92;;
24137;SDS011;17947;50.672;6.076;2023-02-15T14:15:38;3.92;;;2.60;;
24137;SDS011;17947;50.672;6.076;2023-02-15T14:23:25;4.90;;;2.88;;
24137;SDS011;17947;50.672;6.076;2023-02-15T14:28:28;4.25;;;3.13;;
24137;SDS011;17947;50.672;6.076;2023-02-15T14:30:56;4.40;;;3.03;;
24137;SDS011;17947;50.672;6.076;2023-02-15T14:33:31;5.15;;;2.72;;
24137;SDS011;17947;50.672;6.076;2023-02-15T14:35:58;4.57;;;3.22;;
24137;SDS011;17947;50.672;6.076;2023-02-15T14:40:56;4.80;;;3.20;;
24137;SDS011;17947;50.672;6.076;2023-02-15T14:43:34;4.10;;;2.90;;
24137;SDS011;17947;50.672;6.076;2023-02-15T14:48:42;4.60;;;3.30;;
24137;SDS011;17947;50.672;6.076;2023-02-15T14:51:10;4.00;;;2.97;;
24137;SDS011;17947;50.672;6.076;2023-02-15T14:53:37;4.72;;;3.17;;
24137;SDS011;17947;50.672;6.076;2023-02-15T15:01:24;5.18;;;3.47;;
24137;SDS011;17947;50.672;6.076;2023-02-15T15:03:51;4.47;;;3.22;;
24137;SDS011;17947;50.672;6.076;2023-02-15T15:06:37;4.47;;;3.20;;
24137;SDS011;17947;50.672;6.076;2023-02-15T15:09:12;4.13;;;3.10;;
24137;SDS011;17947;50.672;6.076;2023-02-15T15:11:43;5.10;;;3.58;;
24137;SDS011;17947;50.672;6.076;2023-02-15T15:14:10;5.00;;;3.60;;
24137;SDS011;17947;50.672;6.076;2023-02-15T15:19:12;4.70;;;3.40;;
24137;SDS011;17947;50.672;6.076;2023-02-15T15:29:44;3.47;;;3.15;;
24137;SDS011;17947;50.672;6.076;2023-02-15T15:32:10;3.97;;;3.10;;
24137;SDS011;17947;50.672;6.076;2023-02-15T15:34:50;5.47;;;3.42;;
24137;SDS011;17947;50.672;6.076;2023-02-15T15:45:19;5.10;;;3.33;;
24137;SDS011;17947;50.672;6.076;2023-02-15T15:50:18;4.88;;;3.28;;
24137;SDS011;17947;50.672;6.076;2023-02-15T15:52:50;4.10;;;3.00;;
24137;SDS011;17947;50.672;6.076;2023-02-15T15:55:18;4.40;;;3.30;;
24137;SDS011;17947;50.672;6.076;2023-02-15T15:57:45;5.55;;;3.30;;
24137;SDS011;17947;50.672;6.076;2023-02-15T16:02:59;4.30;;;3.15;;
24137;SDS011;17947;50.672;6.076;2023-02-15T16:05:25;4.18;;;3.33;;
24137;SDS011;17947;50.672;6.076;2023-02-15T16:07:51;3.88;;;3.22;;
24137;SDS011;17947;50.672;6.076;2023-02-15T16:10:24;5.05;;;3.20;;
24137;SDS011;17947;50.672;6.076;2023-02-15T16:12:51;6.63;;;3.70;;
24137;SDS011;17947;50.672;6.076;2023-02-15T16:15:21;4.93;;;3.42;;
24137;SDS011;17947;50.672;6.076;2023-02-15T16:17:52;5.07;;;3.53;;
24137;SDS011;17947;50.672;6.076;2023-02-15T16:20:22;4.28;;;3.38;;
24137;SDS011;17947;50.672;6.076;2023-02-15T16:23:01;4.35;;;3.40;;
24137;SDS011;17947;50.672;6.076;2023-02-15T16:28:27;5.20;;;3.67;;
24137;SDS011;17947;50.672;6.076;2023-02-15T16:31:13;4.65;;;3.70;;
24137;SDS011;17947;50.672;6.076;2023-02-15T16:33:40;4.18;;;3.40;;
24137;SDS011;17947;50.672;6.076;2023-02-15T16:36:28;4.72;;;3.10;;
24137;SDS011;17947;50.672;6.076;2023-02-15T16:43:48;5.70;;;3.90;;
24137;SDS011;17947;50.672;6.076;2023-02-15T16:46:24;5.68;;;3.85;;
24137;SDS011;17947;50.672;6.076;2023-02-15T16:48:51;6.88;;;4.03;;
24137;SDS011;17947;50.672;6.076;2023-02-15T16:51:19;4.68;;;3.58;;
24137;SDS011;17947;50.672;6.076;2023-02-15T16:53:46;6.45;;;4.45;;
24137;SDS011;17947;50.672;6.076;2023-02-15T16:56:13;4.63;;;3.58;;
24137;SDS011;17947;50.672;6.076;2023-02-15T16:58:42;6.07;;;4.38;;
24137;SDS011;17947;50.672;6.076;2023-02-15T17:01:08;5.10;;;4.10;;
24137;SDS011;17947;50.672;6.076;2023-02-15T17:03:35;5.43;;;3.90;;
24137;SDS011;17947;50.672;6.076;2023-02-15T17:06:02;6.10;;;4.00;;
24137;SDS011;17947;50.672;6.076;2023-02-15T17:08:33;6.43;;;4.60;;
24137;SDS011;17947;50.672;6.076;2023-02-15T17:11:16;5.65;;;4.03;;
24137;SDS011;17947;50.672;6.076;2023-02-15T17:16:31;6.22;;;4.43;;
24137;SDS011;17947;50.672;6.076;2023-02-15T17:18:59;5.07;;;3.70;;
24137;SDS011;17947;50.672;6.076;2023-02-15T17:21:27;6.75;;;4.47;;
24137;SDS011;17947;50.672;6.076;2023-02-15T17:23:59;5.80;;;4.05;;
24137;SDS011;17947;50.672;6.076;2023-02-15T17:28:52;5.43;;;4.13;;
24137;SDS011;17947;50.672;6.076;2023-02-15T17:31:21;6.25;;;4.60;;
24137;SDS011;17947;50.672;6.076;2023-02-15T17:33:47;6.05;;;4.38;;
24137;SDS011;17947;50.672;6.076;2023-02-15T17:36:14;7.60;;;4.95;;
24137;SDS011;17947;50.672;6.076;2023-02-15T17:41:32;7.30;;;4.45;;
24137;SDS011;17947;50.672;6.076;2023-02-15T17:44:05;6.40;;;4.95;;
24137;SDS011;17947;50.672;6.076;2023-02-15T17:46:34;7.75;;;5.00;;
24137;SDS011;17947;50.672;6.076;2023-02-15T17:49:01;5.38;;;4.57;;
24137;SDS011;17947;50.672;6.076;2023-02-15T17:51:27;7.07;;;5.00;;
24137;SDS011;17947;50.672;6.076;2023-02-15T17:53:53;6.65;;;4.63;;
24137;SDS011;17947;50.672;6.076;2023-02-15T17:56:38;6.95;;;4.88;;
24137;SDS011;17947;50.672;6.076;2023-02-15T17:59:04;8.40;;;4.97;;
24137;SDS011;17947;50.672;6.076;2023-02-15T18:01:37;7.72;;;5.22;;
24137;SDS011;17947;50.672;6.076;2023-02-15T18:04:23;9.07;;;5.78;;
24137;SDS011;17947;50.672;6.076;2023-02-15T18:07:08;11.20;;;6.68;;
24137;SDS011;17947;50.672;6.076;2023-02-15T18:09:53;9.82;;;6.35;;
24137;SDS011;17947;50.672;6.076;2023-02-15T18:12:38;9.38;;;6.22;;
24137;SDS011;17947;50.672;6.076;2023-02-15T18:15:05;11.30;;;6.53;;
24137;SDS011;17947;50.672;6.076;2023-02-15T18:17:33;12.50;;;7.15;;
24137;SDS011;17947;50.672;6.076;2023-02-15T18:19:59;10.98;;;6.40;;
24137;SDS011;17947;50.672;6.076;2023-02-15T18:22:29;11.82;;;7.20;;
24137;SDS011;17947;50.672;6.076;2023-02-15T18:24:55;10.57;;;7.00;;
24137;SDS011;17947;50.672;6.076;2023-02-15T18:27:21;11.35;;;7.20;;